Air Navigation Services of Czech Republic
Airport: LKPD Updated:  22.05.2019 02:00:26  UTC
 METAR LKPD 22.05. 02:00 COR
METAR COR LKPD 220200Z 28010KT 9999 -RA OVC040 14/12 Q1006 RMK BLU=
 TAF LKPD 21.05. 23:00 ...
TAF LKPD 212300Z 2200/2300 26014KT 9999 BKN040      TEMPO 2200/2215 6000 RA OVC017      PROB30 TEMPO 2202/2212 3000 RA BKN005 OVC010      TEMPO 2210/2222 30016G34KT=